sensor_id;sensor_type;location;lat;lon;timestamp;temperature;humidity
1413;DHT22;701;52.526;13.408;2023-03-01T00:02:04;1.10;18.90
1413;DHT22;701;52.526;13.408;2023-03-01T00:04:30;1.10;19.20
1413;DHT22;701;52.526;13.408;2023-03-01T00:06:56;1.10;19.20
1413;DHT22;701;52.526;13.408;2023-03-01T00:09:22;1.10;19.30
1413;DHT22;701;52.526;13.408;2023-03-01T00:11:48;1.00;19.20
1413;DHT22;701;52.526;13.408;2023-03-01T00:14:15;1.00;19.20
1413;DHT22;701;52.526;13.408;2023-03-01T00:16:43;1.00;19.20
1413;DHT22;701;52.526;13.408;2023-03-01T00:19:13;1.00;19.20
1413;DHT22;701;52.526;13.408;2023-03-01T00:21:40;0.90;19.20
1413;DHT22;701;52.526;13.408;2023-03-01T00:24:06;0.90;19.30
1413;DHT22;701;52.526;13.408;2023-03-01T00:26:32;0.90;19.70
1413;DHT22;701;52.526;13.408;2023-03-01T00:28:58;0.90;19.90
1413;DHT22;701;52.526;13.408;2023-03-01T00:31:29;0.90;19.80
1413;DHT22;701;52.526;13.408;2023-03-01T00:33:58;0.90;19.80
1413;DHT22;701;52.526;13.408;2023-03-01T00:36:31;0.80;19.90
1413;DHT22;701;52.526;13.408;2023-03-01T00:38:57;0.80;20.30
1413;DHT22;701;52.526;13.408;2023-03-01T00:41:23;0.80;20.30
1413;DHT22;701;52.526;13.408;2023-03-01T00:43:52;0.80;20.60
1413;DHT22;701;52.526;13.408;2023-03-01T00:46:22;0.80;20.70
1413;DHT22;701;52.526;13.408;2023-03-01T00:48:48;0.80;20.90
1413;DHT22;701;52.526;13.408;2023-03-01T00:51:19;0.80;21.00
1413;DHT22;701;52.526;13.408;2023-03-01T00:53:46;0.80;21.20
1413;DHT22;701;52.526;13.408;2023-03-01T00:56:13;0.80;21.30
1413;DHT22;701;52.526;13.408;2023-03-01T00:58:39;0.70;21.30
1413;DHT22;701;52.526;13.408;2023-03-01T01:01:14;0.80;21.50
1413;DHT22;701;52.526;13.408;2023-03-01T01:03:55;0.80;21.40
1413;DHT22;701;52.526;13.408;2023-03-01T01:06:27;0.70;21.60
1413;DHT22;701;52.526;13.408;2023-03-01T01:08:54;0.70;21.70
1413;DHT22;701;52.526;13.408;2023-03-01T01:11:21;0.70;21.70
1413;DHT22;701;52.526;13.408;2023-03-01T01:13:47;0.70;21.70
1413;DHT22;701;52.526;13.408;2023-03-01T01:16:15;0.70;21.90
1413;DHT22;701;52.526;13.408;2023-03-01T01:18:41;0.70;22.10
1413;DHT22;701;52.526;13.408;2023-03-01T01:21:13;0.70;22.20
1413;DHT22;701;52.526;13.408;2023-03-01T01:23:40;0.70;22.20
1413;DHT22;701;52.526;13.408;2023-03-01T01:26:17;0.70;22.20
1413;DHT22;701;52.526;13.408;2023-03-01T01:28:43;0.70;22.30
1413;DHT22;701;52.526;13.408;2023-03-01T01:31:08;0.70;22.50
1413;DHT22;701;52.526;13.408;2023-03-01T01:33:34;0.70;22.50
1413;DHT22;701;52.526;13.408;2023-03-01T01:36:00;0.70;22.50
1413;DHT22;701;52.526;13.408;2023-03-01T01:38:26;0.70;22.50
1413;DHT22;701;52.526;13.408;2023-03-01T01:40:52;0.70;22.60
1413;DHT22;701;52.526;13.408;2023-03-01T01:43:34;0.70;22.50
1413;DHT22;701;52.526;13.408;2023-03-01T01:49:07;0.60;22.50
1413;DHT22;701;52.526;13.408;2023-03-01T01:51:39;0.60;22.50
1413;DHT22;701;52.526;13.408;2023-03-01T01:54:10;0.60;22.50
1413;DHT22;701;52.526;13.408;2023-03-01T01:56:40;0.60;22.60
1413;DHT22;701;52.526;13.408;2023-03-01T01:59:07;0.60;23.00
1413;DHT22;701;52.526;13.408;2023-03-01T02:01:34;0.50;22.90
1413;DHT22;701;52.526;13.408;2023-03-01T02:03:59;0.50;22.80
1413;DHT22;701;52.526;13.408;2023-03-01T02:06:39;0.50;22.90
1413;DHT22;701;52.526;13.408;2023-03-01T02:09:12;0.50;22.90
1413;DHT22;701;52.526;13.408;2023-03-01T02:11:38;0.50;22.90
1413;DHT22;701;52.526;13.408;2023-03-01T02:14:05;0.50;23.00
1413;DHT22;701;52.526;13.408;2023-03-01T02:16:31;0.40;23.00
1413;DHT22;701;52.526;13.408;2023-03-01T02:18:58;0.40;22.90
1413;DHT22;701;52.526;13.408;2023-03-01T02:22:15;0.40;23.00
1413;DHT22;701;52.526;13.408;2023-03-01T02:30:22;0.30;23.50
1413;DHT22;701;52.526;13.408;2023-03-01T02:32:48;0.30;23.60
1413;DHT22;701;52.526;13.408;2023-03-01T02:35:17;0.30;23.60
1413;DHT22;701;52.526;13.408;2023-03-01T02:37:44;0.30;23.40
1413;DHT22;701;52.526;13.408;2023-03-01T02:40:17;0.30;23.40
1413;DHT22;701;52.526;13.408;2023-03-01T02:42:52;0.20;23.40
1413;DHT22;701;52.526;13.408;2023-03-01T02:45:19;0.20;23.40
1413;DHT22;701;52.526;13.408;2023-03-01T02:47:45;0.20;23.50
1413;DHT22;701;52.526;13.408;2023-03-01T02:55:57;0.20;23.50
1413;DHT22;701;52.526;13.408;2023-03-01T02:58:24;0.10;23.40
1413;DHT22;701;52.526;13.408;2023-03-01T03:00:51;0.10;23.50
1413;DHT22;701;52.526;13.408;2023-03-01T03:03:19;0.10;23.50
1413;DHT22;701;52.526;13.408;2023-03-01T03:05:46;0.10;23.60
1413;DHT22;701;52.526;13.408;2023-03-01T03:08:11;0.00;23.60
1413;DHT22;701;52.526;13.408;2023-03-01T03:10:40;0.00;23.70
1413;DHT22;701;52.526;13.408;2023-03-01T03:13:13;0.00;23.90
1413;DHT22;701;52.526;13.408;2023-03-01T03:15:40;0.00;23.80
1413;DHT22;701;52.526;13.408;2023-03-01T03:18:10;-0.10;23.90
1413;DHT22;701;52.526;13.408;2023-03-01T03:20:36;-0.10;24.00
1413;DHT22;701;52.526;13.408;2023-03-01T03:23:03;-0.10;24.00
1413;DHT22;701;52.526;13.408;2023-03-01T03:25:29;-0.10;24.00
1413;DHT22;701;52.526;13.408;2023-03-01T03:27:56;-0.10;24.10
1413;DHT22;701;52.526;13.408;2023-03-01T03:30:27;-0.10;24.20
1413;DHT22;701;52.526;13.408;2023-03-01T03:32:53;-0.10;24.30
1413;DHT22;701;52.526;13.408;2023-03-01T03:35:25;-0.10;24.60
1413;DHT22;701;52.526;13.408;2023-03-01T03:37:51;-0.20;24.40
1413;DHT22;701;52.526;13.408;2023-03-01T03:40:30;-0.20;24.40
1413;DHT22;701;52.526;13.408;2023-03-01T03:42:56;-0.20;24.40
1413;DHT22;701;52.526;13.408;2023-03-01T03:45:22;-0.20;24.60
1413;DHT22;701;52.526;13.408;2023-03-01T03:47:48;-0.30;24.50
1413;DHT22;701;52.526;13.408;2023-03-01T03:50:15;-0.20;24.60
1413;DHT22;701;52.526;13.408;2023-03-01T03:52:41;-0.30;24.60
1413;DHT22;701;52.526;13.408;2023-03-01T03:55:09;-0.30;24.70
1413;DHT22;701;52.526;13.408;2023-03-01T03:57:36;-0.30;24.90
1413;DHT22;701;52.526;13.408;2023-03-01T04:00:04;-0.30;24.80
1413;DHT22;701;52.526;13.408;2023-03-01T04:02:38;-0.30;25.30
1413;DHT22;701;52.526;13.408;2023-03-01T04:05:05;-0.30;25.40
1413;DHT22;701;52.526;13.408;2023-03-01T04:07:31;-0.40;25.30
1413;DHT22;701;52.526;13.408;2023-03-01T04:09:57;-0.40;25.30
1413;DHT22;701;52.526;13.408;2023-03-01T04:12:22;-0.40;25.30
1413;DHT22;701;52.526;13.408;2023-03-01T04:14:48;-0.40;25.30
1413;DHT22;701;52.526;13.408;2023-03-01T04:17:14;-0.40;25.30
1413;DHT22;701;52.526;13.408;2023-03-01T04:19:40;-0.40;25.30
1413;DHT22;701;52.526;13.408;2023-03-01T04:22:05;-0.50;25.30
1413;DHT22;701;52.526;13.408;2023-03-01T04:24:35;-0.50;25.20
1413;DHT22;701;52.526;13.408;2023-03-01T04:27:01;-0.50;25.40
1413;DHT22;701;52.526;13.408;2023-03-01T04:29:27;-0.50;25.30
1413;DHT22;701;52.526;13.408;2023-03-01T04:31:53;-0.50;25.20
1413;DHT22;701;52.526;13.408;2023-03-01T04:34:19;-0.50;25.20
1413;DHT22;701;52.526;13.408;2023-03-01T04:36:45;-0.50;25.60
1413;DHT22;701;52.526;13.408;2023-03-01T04:39:10;-0.50;25.60
1413;DHT22;701;52.526;13.408;2023-03-01T04:41:39;-0.50;25.80
1413;DHT22;701;52.526;13.408;2023-03-01T04:44:06;-0.50;25.90
1413;DHT22;701;52.526;13.408;2023-03-01T04:46:33;-0.50;25.80
1413;DHT22;701;52.526;13.408;2023-03-01T04:48:58;-0.50;25.80
1413;DHT22;701;52.526;13.408;2023-03-01T04:51:24;-0.50;25.80
1413;DHT22;701;52.526;13.408;2023-03-01T04:53:50;-0.50;26.20
1413;DHT22;701;52.526;13.408;2023-03-01T04:56:16;-0.50;26.30
1413;DHT22;701;52.526;13.408;2023-03-01T04:58:44;-0.60;26.20
1413;DHT22;701;52.526;13.408;2023-03-01T05:01:18;-0.60;26.30
1413;DHT22;701;52.526;13.408;2023-03-01T05:03:46;-0.50;26.20
1413;DHT22;701;52.526;13.408;2023-03-01T05:06:12;-0.60;26.40
1413;DHT22;701;52.526;13.408;2023-03-01T05:08:39;-0.60;26.50
1413;DHT22;701;52.526;13.408;2023-03-01T05:11:05;-0.60;26.40
1413;DHT22;701;52.526;13.408;2023-03-01T05:13:37;-0.60;26.50
1413;DHT22;701;52.526;13.408;2023-03-01T05:16:05;-0.60;26.60
1413;DHT22;701;52.526;13.408;2023-03-01T05:18:32;-0.60;26.70
1413;DHT22;701;52.526;13.408;2023-03-01T05:21:13;-0.60;26.80
1413;DHT22;701;52.526;13.408;2023-03-01T05:23:41;-0.60;26.90
1413;DHT22;701;52.526;13.408;2023-03-01T05:26:08;-0.60;26.80
1413;DHT22;701;52.526;13.408;2023-03-01T05:28:34;-0.60;27.30
1413;DHT22;701;52.526;13.408;2023-03-01T05:31:00;-0.60;27.10
1413;DHT22;701;52.526;13.408;2023-03-01T05:33:26;-0.60;27.00
1413;DHT22;701;52.526;13.408;2023-03-01T05:35:52;-0.60;27.10
1413;DHT22;701;52.526;13.408;2023-03-01T05:38:19;-0.60;27.00
1413;DHT22;701;52.526;13.408;2023-03-01T05:40:47;-0.60;27.30
1413;DHT22;701;52.526;13.408;2023-03-01T05:43:16;-0.60;27.70
1413;DHT22;701;52.526;13.408;2023-03-01T05:45:42;-0.60;27.20
1413;DHT22;701;52.526;13.408;2023-03-01T05:48:09;-0.60;27.40
1413;DHT22;701;52.526;13.408;2023-03-01T05:50:38;-0.60;27.30
1413;DHT22;701;52.526;13.408;2023-03-01T05:53:07;-0.60;27.30
1413;DHT22;701;52.526;13.408;2023-03-01T05:55:35;-0.60;27.40
1413;DHT22;701;52.526;13.408;2023-03-01T05:58:03;-0.60;27.50
1413;DHT22;701;52.526;13.408;2023-03-01T06:00:29;-0.60;27.60
1413;DHT22;701;52.526;13.408;2023-03-01T06:02:56;-0.60;27.40
1413;DHT22;701;52.526;13.408;2023-03-01T06:05:23;-0.60;27.70
1413;DHT22;701;52.526;13.408;2023-03-01T06:07:49;-0.60;27.80
1413;DHT22;701;52.526;13.408;2023-03-01T06:10:17;-0.60;27.80
1413;DHT22;701;52.526;13.408;2023-03-01T06:12:43;-0.50;27.80
1413;DHT22;701;52.526;13.408;2023-03-01T06:15:15;-0.50;28.00
1413;DHT22;701;52.526;13.408;2023-03-01T06:17:42;-0.50;27.80
1413;DHT22;701;52.526;13.408;2023-03-01T06:20:12;-0.40;28.10
1413;DHT22;701;52.526;13.408;2023-03-01T06:22:38;-0.40;27.90
1413;DHT22;701;52.526;13.408;2023-03-01T06:25:05;-0.40;28.20
1413;DHT22;701;52.526;13.408;2023-03-01T06:27:31;-0.30;28.10
1413;DHT22;701;52.526;13.408;2023-03-01T06:29:56;-0.20;28.00
1413;DHT22;701;52.526;13.408;2023-03-01T06:32:22;-0.20;28.10
1413;DHT22;701;52.526;13.408;2023-03-01T06:34:49;-0.10;27.90
1413;DHT22;701;52.526;13.408;2023-03-01T06:37:15;-0.10;27.90
1413;DHT22;701;52.526;13.408;2023-03-01T06:39:41;0.00;27.90
1413;DHT22;701;52.526;13.408;2023-03-01T06:42:08;0.00;28.00
1413;DHT22;701;52.526;13.408;2023-03-01T06:44:36;0.10;27.90
1413;DHT22;701;52.526;13.408;2023-03-01T06:47:02;0.10;27.90
1413;DHT22;701;52.526;13.408;2023-03-01T06:49:29;0.20;27.90
1413;DHT22;701;52.526;13.408;2023-03-01T06:51:56;0.20;28.00
1413;DHT22;701;52.526;13.408;2023-03-01T06:54:23;0.20;27.90
1413;DHT22;701;52.526;13.408;2023-03-01T06:56:49;0.30;28.10
1413;DHT22;701;52.526;13.408;2023-03-01T06:59:16;0.40;28.20
1413;DHT22;701;52.526;13.408;2023-03-01T07:01:42;0.40;28.10
1413;DHT22;701;52.526;13.408;2023-03-01T07:04:10;0.50;28.10
1413;DHT22;701;52.526;13.408;2023-03-01T07:06:36;0.60;28.00
1413;DHT22;701;52.526;13.408;2023-03-01T07:09:02;0.60;28.00
1413;DHT22;701;52.526;13.408;2023-03-01T07:11:28;0.70;28.40
1413;DHT22;701;52.526;13.408;2023-03-01T07:13:54;0.70;27.80
1413;DHT22;701;52.526;13.408;2023-03-01T07:16:20;0.80;27.80
1413;DHT22;701;52.526;13.408;2023-03-01T07:18:46;0.90;27.80
1413;DHT22;701;52.526;13.408;2023-03-01T07:21:13;0.90;27.70
1413;DHT22;701;52.526;13.408;2023-03-01T07:23:40;1.00;27.70
1413;DHT22;701;52.526;13.408;2023-03-01T07:26:06;1.00;27.50
1413;DHT22;701;52.526;13.408;2023-03-01T07:28:32;1.10;27.50
1413;DHT22;701;52.526;13.408;2023-03-01T07:31:02;1.10;27.30
1413;DHT22;701;52.526;13.408;2023-03-01T07:33:28;1.20;27.20
1413;DHT22;701;52.526;13.408;2023-03-01T07:35:59;1.20;27.00
1413;DHT22;701;52.526;13.408;2023-03-01T07:38:26;1.30;26.80
1413;DHT22;701;52.526;13.408;2023-03-01T07:40:51;1.30;26.50
1413;DHT22;701;52.526;13.408;2023-03-01T07:43:17;1.40;26.40
1413;DHT22;701;52.526;13.408;2023-03-01T07:45:43;1.40;26.40
1413;DHT22;701;52.526;13.408;2023-03-01T07:48:09;1.50;26.10
1413;DHT22;701;52.526;13.408;2023-03-01T07:50:35;1.50;25.80
1413;DHT22;701;52.526;13.408;2023-03-01T07:53:00;1.60;25.50
1413;DHT22;701;52.526;13.408;2023-03-01T07:55:26;1.70;25.20
1413;DHT22;701;52.526;13.408;2023-03-01T07:57:52;1.70;25.00
1413;DHT22;701;52.526;13.408;2023-03-01T08:00:18;1.80;24.90
1413;DHT22;701;52.526;13.408;2023-03-01T08:02:44;1.90;24.70
1413;DHT22;701;52.526;13.408;2023-03-01T08:05:10;2.00;24.50
1413;DHT22;701;52.526;13.408;2023-03-01T08:07:37;2.00;24.10
1413;DHT22;701;52.526;13.408;2023-03-01T08:10:03;2.10;23.80
1413;DHT22;701;52.526;13.408;2023-03-01T08:12:29;2.20;23.40
1413;DHT22;701;52.526;13.408;2023-03-01T08:14:55;2.30;23.30
1413;DHT22;701;52.526;13.408;2023-03-01T08:17:22;2.40;23.10
1413;DHT22;701;52.526;13.408;2023-03-01T08:19:48;2.50;22.90
1413;DHT22;701;52.526;13.408;2023-03-01T08:22:13;2.60;22.70
1413;DHT22;701;52.526;13.408;2023-03-01T08:24:39;2.60;22.50
1413;DHT22;701;52.526;13.408;2023-03-01T08:27:05;2.70;22.10
1413;DHT22;701;52.526;13.408;2023-03-01T08:29:32;2.80;21.60
1413;DHT22;701;52.526;13.408;2023-03-01T08:31:59;2.90;21.30
1413;DHT22;701;52.526;13.408;2023-03-01T08:34:24;3.00;20.50
1413;DHT22;701;52.526;13.408;2023-03-01T08:36:50;3.10;20.50
1413;DHT22;701;52.526;13.408;2023-03-01T08:39:19;3.20;19.90
1413;DHT22;701;52.526;13.408;2023-03-01T08:41:46;3.30;19.60
1413;DHT22;701;52.526;13.408;2023-03-01T08:44:14;3.40;19.50
1413;DHT22;701;52.526;13.408;2023-03-01T08:46:43;3.40;19.20
1413;DHT22;701;52.526;13.408;2023-03-01T08:49:14;3.50;19.00
1413;DHT22;701;52.526;13.408;2023-03-01T08:51:41;3.60;18.30
1413;DHT22;701;52.526;13.408;2023-03-01T08:54:11;3.70;18.10
1413;DHT22;701;52.526;13.408;2023-03-01T08:56:38;3.70;17.70
1413;DHT22;701;52.526;13.408;2023-03-01T08:59:04;3.80;17.30
1413;DHT22;701;52.526;13.408;2023-03-01T09:01:30;3.90;16.90
1413;DHT22;701;52.526;13.408;2023-03-01T09:03:56;3.90;16.90
1413;DHT22;701;52.526;13.408;2023-03-01T09:06:21;4.00;16.60
1413;DHT22;701;52.526;13.408;2023-03-01T09:08:49;4.10;15.80
1413;DHT22;701;52.526;13.408;2023-03-01T09:11:17;4.10;15.90
1413;DHT22;701;52.526;13.408;2023-03-01T09:13:44;4.20;16.10
1413;DHT22;701;52.526;13.408;2023-03-01T09:16:12;4.20;15.20
1413;DHT22;701;52.526;13.408;2023-03-01T09:18:39;4.30;14.90
1413;DHT22;701;52.526;13.408;2023-03-01T09:21:09;4.30;14.70
1413;DHT22;701;52.526;13.408;2023-03-01T09:23:37;4.40;14.60
1413;DHT22;701;52.526;13.408;2023-03-01T09:26:05;4.50;14.20
1413;DHT22;701;52.526;13.408;2023-03-01T09:28:31;4.50;14.50
1413;DHT22;701;52.526;13.408;2023-03-01T09:31:00;4.60;14.20
1413;DHT22;701;52.526;13.408;2023-03-01T09:33:27;4.70;14.30
1413;DHT22;701;52.526;13.408;2023-03-01T09:36:00;4.70;13.10
1413;DHT22;701;52.526;13.408;2023-03-01T09:38:27;4.80;13.70
1413;DHT22;701;52.526;13.408;2023-03-01T09:40:53;4.90;13.70
1413;DHT22;701;52.526;13.408;2023-03-01T09:46:09;5.10;12.20
1413;DHT22;701;52.526;13.408;2023-03-01T09:48:43;5.30;12.20
1413;DHT22;701;52.526;13.408;2023-03-01T09:51:23;5.70;11.30
1413;DHT22;701;52.526;13.408;2023-03-01T09:53:51;6.40;10.60
1413;DHT22;701;52.526;13.408;2023-03-01T09:56:41;7.30;10.00
1413;DHT22;701;52.526;13.408;2023-03-01T10:04:55;10.40;3.50
1413;DHT22;701;52.526;13.408;2023-03-01T10:10:28;12.20;1.00
1413;DHT22;701;52.526;13.408;2023-03-01T10:12:56;12.80;1.00
1413;DHT22;701;52.526;13.408;2023-03-01T10:15:34;13.20;1.00
1413;DHT22;701;52.526;13.408;2023-03-01T10:18:09;13.50;1.00
1413;DHT22;701;52.526;13.408;2023-03-01T10:20:46;13.60;1.00
1413;DHT22;701;52.526;13.408;2023-03-01T10:23:14;13.60;1.00
1413;DHT22;701;52.526;13.408;2023-03-01T10:28:40;14.20;1.00
1413;DHT22;701;52.526;13.408;2023-03-01T10:31:13;14.40;1.00
1413;DHT22;701;52.526;13.408;2023-03-01T10:33:40;14.40;1.00
1413;DHT22;701;52.526;13.408;2023-03-01T10:36:09;14.40;1.00
1413;DHT22;701;52.526;13.408;2023-03-01T10:38:56;14.30;1.00
1413;DHT22;701;52.526;13.408;2023-03-01T10:41:25;14.20;1.00
1413;DHT22;701;52.526;13.408;2023-03-01T10:46:35;13.90;1.00
1413;DHT22;701;52.526;13.408;2023-03-01T10:51:39;14.00;1.00
1413;DHT22;701;52.526;13.408;2023-03-01T10:54:28;14.00;1.00
1413;DHT22;701;52.526;13.408;2023-03-01T10:56:57;13.90;1.00
1413;DHT22;701;52.526;13.408;2023-03-01T10:59:27;13.60;1.00
1413;DHT22;701;52.526;13.408;2023-03-01T11:02:16;13.40;1.00
1413;DHT22;701;52.526;13.408;2023-03-01T11:07:53;12.90;1.00
1413;DHT22;701;52.526;13.408;2023-03-01T11:10:22;12.70;1.00
1413;DHT22;701;52.526;13.408;2023-03-01T11:12:48;12.50;1.00
1413;DHT22;701;52.526;13.408;2023-03-01T11:15:21;12.40;1.00
1413;DHT22;701;52.526;13.408;2023-03-01T11:17:48;12.40;1.00
1413;DHT22;701;52.526;13.408;2023-03-01T11:23:00;12.30;1.00
1413;DHT22;701;52.526;13.408;2023-03-01T11:25:33;12.20;1.00
1413;DHT22;701;52.526;13.408;2023-03-01T11:28:03;12.30;1.00
1413;DHT22;701;52.526;13.408;2023-03-01T11:30:35;12.50;1.00
1413;DHT22;701;52.526;13.408;2023-03-01T11:36:41;13.00;1.00
1413;DHT22;701;52.526;13.408;2023-03-01T11:44:55;13.20;1.00
1413;DHT22;701;52.526;13.408;2023-03-01T11:50:25;13.00;1.00
1413;DHT22;701;52.526;13.408;2023-03-01T12:06:21;11.90;1.00
1413;DHT22;701;52.526;13.408;2023-03-01T12:22:44;10.50;1.00
1413;DHT22;701;52.526;13.408;2023-03-01T12:30:34;10.00;1.00
1413;DHT22;701;52.526;13.408;2023-03-01T12:36:03;9.70;1.00
1413;DHT22;701;52.526;13.408;2023-03-01T12:38:45;9.50;1.00
1413;DHT22;701;52.526;13.408;2023-03-01T12:41:31;9.40;1.00
1413;DHT22;701;52.526;13.408;2023-03-01T12:46:57;9.20;1.00
1413;DHT22;701;52.526;13.408;2023-03-01T12:49:30;9.20;1.00
1413;DHT22;701;52.526;13.408;2023-03-01T12:52:01;9.10;1.00
1413;DHT22;701;52.526;13.408;2023-03-01T12:54:33;9.10;1.00
1413;DHT22;701;52.526;13.408;2023-03-01T12:57:19;9.10;1.00
1413;DHT22;701;52.526;13.408;2023-03-01T13:02:54;9.10;1.00
1413;DHT22;701;52.526;13.408;2023-03-01T13:06:25;9.10;1.00
1413;DHT22;701;52.526;13.408;2023-03-01T13:08:31;9.10;1.00
1413;DHT22;701;52.526;13.408;2023-03-01T13:11:04;9.20;1.00
1413;DHT22;701;52.526;13.408;2023-03-01T13:13:31;9.20;1.00
1413;DHT22;701;52.526;13.408;2023-03-01T13:15:57;9.30;1.00
1413;DHT22;701;52.526;13.408;2023-03-01T13:20:54;9.40;1.00
1413;DHT22;701;52.526;13.408;2023-03-01T13:26:03;9.40;1.00
1413;DHT22;701;52.526;13.408;2023-03-01T13:31:03;9.40;1.00
1413;DHT22;701;52.526;13.408;2023-03-01T13:35:56;9.50;1.00
1413;DHT22;701;52.526;13.408;2023-03-01T13:41:07;9.60;1.00
1413;DHT22;701;52.526;13.408;2023-03-01T13:43:35;9.50;1.00
1413;DHT22;701;52.526;13.408;2023-03-01T13:46:08;9.50;1.00
1413;DHT22;701;52.526;13.408;2023-03-01T13:48:37;9.60;1.00
1413;DHT22;701;52.526;13.408;2023-03-01T13:51:11;9.60;1.00
1413;DHT22;701;52.526;13.408;2023-03-01T13:53:42;9.60;1.00
1413;DHT22;701;52.526;13.408;2023-03-01T13:58:53;9.70;1.00
1413;DHT22;701;52.526;13.408;2023-03-01T14:01:29;9.70;1.00
1413;DHT22;701;52.526;13.408;2023-03-01T14:03:55;9.70;1.00
1413;DHT22;701;52.526;13.408;2023-03-01T14:06:26;9.70;1.00
1413;DHT22;701;52.526;13.408;2023-03-01T14:09:15;9.70;1.00
1413;DHT22;701;52.526;13.408;2023-03-01T14:17:30;9.90;1.00
1413;DHT22;701;52.526;13.408;2023-03-01T14:20:02;9.90;1.00
1413;DHT22;701;52.526;13.408;2023-03-01T14:22:34;10.00;1.00
1413;DHT22;701;52.526;13.408;2023-03-01T14:25:16;10.00;1.00
1413;DHT22;701;52.526;13.408;2023-03-01T14:27:42;10.00;1.00
1413;DHT22;701;52.526;13.408;2023-03-01T14:32:38;10.00;1.00
1413;DHT22;701;52.526;13.408;2023-03-01T14:35:23;10.00;1.00
1413;DHT22;701;52.526;13.408;2023-03-01T14:37:49;10.00;1.00
1413;DHT22;701;52.526;13.408;2023-03-01T14:42:56;10.00;1.00
1413;DHT22;701;52.526;13.408;2023-03-01T14:45:25;10.00;1.00
1413;DHT22;701;52.526;13.408;2023-03-01T14:47:51;9.90;1.00
1413;DHT22;701;52.526;13.408;2023-03-01T14:50:29;9.90;1.00
1413;DHT22;701;52.526;13.408;2023-03-01T14:53:02;9.80;1.00
1413;DHT22;701;52.526;13.408;2023-03-01T14:55:37;9.90;1.00
1413;DHT22;701;52.526;13.408;2023-03-01T14:58:05;9.80;1.00
1413;DHT22;701;52.526;13.408;2023-03-01T15:00:32;9.80;1.00
1413;DHT22;701;52.526;13.408;2023-03-01T15:03:13;9.80;1.00
1413;DHT22;701;52.526;13.408;2023-03-01T15:05:41;9.70;1.00
1413;DHT22;701;52.526;13.408;2023-03-01T15:08:18;9.60;1.00
1413;DHT22;701;52.526;13.408;2023-03-01T15:11:05;9.60;1.00
1413;DHT22;701;52.526;13.408;2023-03-01T15:13:33;9.50;1.00
1413;DHT22;701;52.526;13.408;2023-03-01T15:16:23;9.50;1.00
1413;DHT22;701;52.526;13.408;2023-03-01T15:18:54;9.40;1.00
1413;DHT22;701;52.526;13.408;2023-03-01T15:21:23;9.30;1.00
1413;DHT22;701;52.526;13.408;2023-03-01T15:24:17;9.30;1.00
1413;DHT22;701;52.526;13.408;2023-03-01T15:26:58;9.20;1.00
1413;DHT22;701;52.526;13.408;2023-03-01T15:29:29;9.10;1.00
1413;DHT22;701;52.526;13.408;2023-03-01T15:31:57;9.00;1.00
1413;DHT22;701;52.526;13.408;2023-03-01T15:34:43;9.00;1.00
1413;DHT22;701;52.526;13.408;2023-03-01T15:37:44;8.90;1.00
1413;DHT22;701;52.526;13.408;2023-03-01T15:42:51;8.70;1.00
1413;DHT22;701;52.526;13.408;2023-03-01T15:47:56;8.60;1.00
1413;DHT22;701;52.526;13.408;2023-03-01T15:52:59;8.40;1.00
1413;DHT22;701;52.526;13.408;2023-03-01T15:55:30;8.40;1.00
1413;DHT22;701;52.526;13.408;2023-03-01T15:58:16;8.30;1.00
1413;DHT22;701;52.526;13.408;2023-03-01T16:00:43;8.30;1.00
1413;DHT22;701;52.526;13.408;2023-03-01T16:03:11;8.20;1.00
1413;DHT22;701;52.526;13.408;2023-03-01T16:05:38;8.10;1.00
1413;DHT22;701;52.526;13.408;2023-03-01T16:08:05;8.10;1.00
1413;DHT22;701;52.526;13.408;2023-03-01T16:10:31;8.10;1.00
1413;DHT22;701;52.526;13.408;2023-03-01T16:12:58;8.00;1.00
1413;DHT22;701;52.526;13.408;2023-03-01T16:15:27;8.00;1.00
1413;DHT22;701;52.526;13.408;2023-03-01T16:17:54;7.90;1.00
1413;DHT22;701;52.526;13.408;2023-03-01T16:20:22;7.90;1.00
1413;DHT22;701;52.526;13.408;2023-03-01T16:22:49;7.80;1.20
1413;DHT22;701;52.526;13.408;2023-03-01T16:25:17;7.80;1.20
1413;DHT22;701;52.526;13.408;2023-03-01T16:27:45;7.80;1.20
1413;DHT22;701;52.526;13.408;2023-03-01T16:30:12;7.70;1.10
1413;DHT22;701;52.526;13.408;2023-03-01T16:32:39;7.70;1.10
1413;DHT22;701;52.526;13.408;2023-03-01T16:35:06;7.60;1.40
1413;DHT22;701;52.526;13.408;2023-03-01T16:37:33;7.60;1.70
1413;DHT22;701;52.526;13.408;2023-03-01T16:39:59;7.50;1.80
1413;DHT22;701;52.526;13.408;2023-03-01T16:42:25;7.50;2.00
1413;DHT22;701;52.526;13.408;2023-03-01T16:44:56;7.50;2.30
1413;DHT22;701;52.526;13.408;2023-03-01T16:47:22;7.40;2.40
1413;DHT22;701;52.526;13.408;2023-03-01T16:49:51;7.40;2.40
1413;DHT22;701;52.526;13.408;2023-03-01T16:52:18;7.40;2.50
1413;DHT22;701;52.526;13.408;2023-03-01T16:54:44;7.30;2.60
1413;DHT22;701;52.526;13.408;2023-03-01T16:57:10;7.30;2.80
1413;DHT22;701;52.526;13.408;2023-03-01T16:59:35;7.20;3.10
1413;DHT22;701;52.526;13.408;2023-03-01T17:02:03;7.20;3.60
1413;DHT22;701;52.526;13.408;2023-03-01T17:04:29;7.20;3.30
1413;DHT22;701;52.526;13.408;2023-03-01T17:06:54;7.10;3.40
1413;DHT22;701;52.526;13.408;2023-03-01T17:09:20;7.10;3.50
1413;DHT22;701;52.526;13.408;2023-03-01T17:11:48;7.10;3.50
1413;DHT22;701;52.526;13.408;2023-03-01T17:14:15;7.00;3.70
1413;DHT22;701;52.526;13.408;2023-03-01T17:16:42;7.00;3.90
1413;DHT22;701;52.526;13.408;2023-03-01T17:19:08;7.00;4.10
1413;DHT22;701;52.526;13.408;2023-03-01T17:21:35;6.90;4.30
1413;DHT22;701;52.526;13.408;2023-03-01T17:24:00;6.90;4.40
1413;DHT22;701;52.526;13.408;2023-03-01T17:26:26;6.80;4.40
1413;DHT22;701;52.526;13.408;2023-03-01T17:28:56;6.80;4.40
1413;DHT22;701;52.526;13.408;2023-03-01T17:31:23;6.80;4.40
1413;DHT22;701;52.526;13.408;2023-03-01T17:33:49;6.80;4.70
1413;DHT22;701;52.526;13.408;2023-03-01T17:36:17;6.70;4.80
1413;DHT22;701;52.526;13.408;2023-03-01T17:38:42;6.70;4.90
1413;DHT22;701;52.526;13.408;2023-03-01T17:41:08;6.60;5.20
1413;DHT22;701;52.526;13.408;2023-03-01T17:43:37;6.60;5.30
1413;DHT22;701;52.526;13.408;2023-03-01T17:46:03;6.60;5.50
1413;DHT22;701;52.526;13.408;2023-03-01T17:48:29;6.50;5.70
1413;DHT22;701;52.526;13.408;2023-03-01T17:50:55;6.50;5.70
1413;DHT22;701;52.526;13.408;2023-03-01T17:53:21;6.50;6.00
1413;DHT22;701;52.526;13.408;2023-03-01T17:55:47;6.50;6.10
1413;DHT22;701;52.526;13.408;2023-03-01T17:58:18;6.40;6.20
1413;DHT22;701;52.526;13.408;2023-03-01T18:00:48;6.40;6.30
1413;DHT22;701;52.526;13.408;2023-03-01T18:03:15;6.30;6.40
1413;DHT22;701;52.526;13.408;2023-03-01T18:05:41;6.30;6.60
1413;DHT22;701;52.526;13.408;2023-03-01T18:08:06;6.30;6.80
1413;DHT22;701;52.526;13.408;2023-03-01T18:10:33;6.30;7.10
1413;DHT22;701;52.526;13.408;2023-03-01T18:13:02;6.20;7.20
1413;DHT22;701;52.526;13.408;2023-03-01T18:15:28;6.10;7.30
1413;DHT22;701;52.526;13.408;2023-03-01T18:17:54;6.10;7.70
1413;DHT22;701;52.526;13.408;2023-03-01T18:20:20;6.10;7.80
1413;DHT22;701;52.526;13.408;2023-03-01T18:22:46;6.10;7.80
1413;DHT22;701;52.526;13.408;2023-03-01T18:25:12;6.00;7.70
1413;DHT22;701;52.526;13.408;2023-03-01T18:27:38;6.00;7.70
1413;DHT22;701;52.526;13.408;2023-03-01T18:30:06;6.00;7.70
1413;DHT22;701;52.526;13.408;2023-03-01T18:32:32;5.90;7.70
1413;DHT22;701;52.526;13.408;2023-03-01T18:34:58;5.90;7.90
1413;DHT22;701;52.526;13.408;2023-03-01T18:37:23;5.90;7.90
1413;DHT22;701;52.526;13.408;2023-03-01T18:39:51;5.90;8.00